Terminal Aerodrome Forecast
Issued by NWS

Home | Current Version | Previous Version | Text Only | Print | Product List | Glossary On
Versions: 1 2 3 4 5 6 7 8 9 10 11 12
000
FTUS46 KSTO 221100
TAFSCK
TAF
KSCK 221120Z 2212/2312 33005KT P6SM SCT150
     FM221800 30011KT P6SM SCT250
     FM222300 29015KT P6SM SKC
     FM230600 29008KT P6SM SKC=

USA.gov is the U.S. government's official web portal to all federal, state and local government web resources and services.